createdAt,value
2019-05-23T00:00:46.480Z,9.10
2019-05-23T00:03:16.364Z,9.00
2019-05-23T00:05:49.707Z,9.00
2019-05-23T00:08:24.104Z,9.00
2019-05-23T00:11:22.010Z,8.90
2019-05-23T00:14:00.544Z,8.90
2019-05-23T00:16:30.932Z,8.80
2019-05-23T00:19:00.428Z,8.70
2019-05-23T00:21:30.620Z,8.80
2019-05-23T00:24:00.081Z,8.80
2019-05-23T00:26:29.925Z,8.80
2019-05-23T00:29:09.510Z,8.70
2019-05-23T00:31:35.522Z,8.80
2019-05-23T00:34:06.581Z,8.70
2019-05-23T00:36:35.613Z,8.60
2019-05-23T00:39:09.043Z,8.50
2019-05-23T00:41:40.530Z,8.50
2019-05-23T00:44:11.312Z,8.50
2019-05-23T00:46:41.426Z,8.60
2019-05-23T00:49:11.141Z,8.50
2019-05-23T00:51:41.665Z,8.40
2019-05-23T00:54:10.996Z,8.40
2019-05-23T00:56:41.860Z,8.40
2019-05-23T00:59:25.853Z,8.40
2019-05-23T01:01:42.903Z,8.40
2019-05-23T01:04:13.181Z,8.40
2019-05-23T01:06:44.126Z,8.30
2019-05-23T01:09:13.339Z,8.30
2019-05-23T01:11:44.075Z,8.30
2019-05-23T01:14:13.830Z,8.30
2019-05-23T01:16:42.996Z,8.30
2019-05-23T01:19:12.614Z,8.30
2019-05-23T01:22:01.267Z,8.30
2019-05-23T01:24:37.355Z,8.30
2019-05-23T01:27:07.189Z,8.20
2019-05-23T01:29:39.777Z,8.20
2019-05-23T01:32:27.238Z,8.20
2019-05-23T01:34:58.852Z,8.20
2019-05-23T01:37:27.867Z,8.10
2019-05-23T01:39:57.606Z,8.10
2019-05-23T01:42:28.120Z,8.10
2019-05-23T01:45:00.076Z,8.00
2019-05-23T01:47:29.190Z,8.10
2019-05-23T01:49:58.880Z,8.00
2019-05-23T01:52:28.563Z,8.10
2019-05-23T01:54:58.951Z,8.10
2019-05-23T01:57:27.948Z,8.10
2019-05-23T02:00:08.994Z,8.00
2019-05-23T02:02:29.160Z,7.90
2019-05-23T02:04:58.308Z,7.90
2019-05-23T02:07:29.200Z,7.90
2019-05-23T02:09:58.696Z,7.90
2019-05-23T02:12:28.119Z,7.90
2019-05-23T02:14:57.164Z,7.90
2019-05-23T02:17:26.162Z,7.80
2019-05-23T02:19:56.178Z,7.80
2019-05-23T02:22:25.105Z,7.80
2019-05-23T02:24:54.600Z,7.70
2019-05-23T02:27:25.182Z,7.70
2019-05-23T02:29:55.873Z,7.70
2019-05-23T02:32:26.088Z,7.70
2019-05-23T02:34:55.712Z,7.70
2019-05-23T02:37:42.246Z,7.80
2019-05-23T02:40:20.745Z,7.70
2019-05-23T02:42:55.458Z,7.70
2019-05-23T02:45:31.716Z,7.60
2019-05-23T02:48:01.156Z,7.60
2019-05-23T02:50:36.470Z,7.60
2019-05-23T02:53:09.069Z,7.60
2019-05-23T02:55:40.534Z,7.60
2019-05-23T02:58:31.438Z,7.60
2019-05-23T03:01:12.816Z,7.60
2019-05-23T03:03:41.760Z,7.50
2019-05-23T03:06:17.272Z,7.60
2019-05-23T03:08:47.991Z,7.50
2019-05-23T03:11:36.517Z,7.50
2019-05-23T03:14:06.335Z,7.50
2019-05-23T03:16:35.901Z,7.40
2019-05-23T03:19:12.507Z,7.50
2019-05-23T03:21:43.485Z,7.50
2019-05-23T03:24:12.816Z,7.50
2019-05-23T03:27:13.549Z,7.40
2019-05-23T03:29:42.607Z,7.40
2019-05-23T03:32:37.441Z,7.40
2019-05-23T03:35:18.831Z,7.30
2019-05-23T03:37:49.657Z,7.40
2019-05-23T03:40:20.393Z,7.40
2019-05-23T03:42:49.584Z,7.40
2019-05-23T03:45:22.536Z,7.40
2019-05-23T03:47:53.203Z,7.40
2019-05-23T03:50:23.137Z,7.30
2019-05-23T03:52:52.187Z,7.20
2019-05-23T03:55:23.477Z,7.20
2019-05-23T03:57:54.729Z,7.20
2019-05-23T04:00:26.894Z,7.30
2019-05-23T04:02:57.474Z,7.30
2019-05-23T04:05:29.598Z,7.40
2019-05-23T04:08:07.566Z,7.30
2019-05-23T04:10:37.506Z,7.30
2019-05-23T04:13:08.052Z,7.40
2019-05-23T04:15:37.766Z,7.40
2019-05-23T04:18:06.823Z,7.40
2019-05-23T04:20:36.606Z,7.40
2019-05-23T04:23:05.763Z,7.50
2019-05-23T04:25:35.253Z,7.40
2019-05-23T04:28:04.371Z,7.40
2019-05-23T04:30:34.575Z,7.50
2019-05-23T04:33:04.454Z,7.60
2019-05-23T04:35:33.877Z,7.60
2019-05-23T04:38:03.266Z,7.70
2019-05-23T04:40:32.803Z,7.60
2019-05-23T04:43:01.887Z,7.60
2019-05-23T04:45:31.302Z,7.70
2019-05-23T04:48:01.112Z,7.80
2019-05-23T04:50:30.736Z,7.90
2019-05-23T04:53:00.291Z,7.90
2019-05-23T04:55:29.587Z,8.00
2019-05-23T04:58:03.682Z,8.00
2019-05-23T05:00:31.094Z,8.10
2019-05-23T05:03:00.479Z,8.20
2019-05-23T05:05:29.997Z,8.30
2019-05-23T05:07:59.222Z,8.30
2019-05-23T05:10:29.063Z,8.40
2019-05-23T05:12:58.465Z,8.50
2019-05-23T05:15:27.563Z,8.60
2019-05-23T05:17:56.949Z,8.70
2019-05-23T05:20:26.246Z,8.80
2019-05-23T05:22:55.405Z,8.80
2019-05-23T05:25:24.734Z,9.00
2019-05-23T05:27:53.722Z,9.00
2019-05-23T05:30:24.299Z,9.10
2019-05-23T05:32:53.309Z,9.30
2019-05-23T05:35:22.873Z,9.40
2019-05-23T05:37:51.988Z,9.50
2019-05-23T05:40:21.628Z,9.70
2019-05-23T05:42:51.522Z,10.00
2019-05-23T05:45:21.265Z,10.30
2019-05-23T05:47:50.803Z,10.80
2019-05-23T05:50:20.474Z,11.40
2019-05-23T05:52:49.380Z,11.90
2019-05-23T05:55:18.976Z,12.30
2019-05-23T05:57:48.383Z,12.90
2019-05-23T06:00:47.666Z,13.40
2019-05-23T06:03:16.723Z,14.10
2019-05-23T06:06:03.594Z,14.90
2019-05-23T06:08:35.390Z,15.30
2019-05-23T06:11:05.414Z,15.90
2019-05-23T06:13:34.601Z,16.40
2019-05-23T06:16:03.750Z,17.00
2019-05-23T06:18:32.831Z,17.40
2019-05-23T06:21:04.032Z,17.70
2019-05-23T06:23:33.978Z,18.10
2019-05-23T06:26:03.054Z,18.60
2019-05-23T06:28:34.791Z,19.10
2019-05-23T06:31:04.172Z,19.50
2019-05-23T06:33:34.234Z,19.80
2019-05-23T06:36:03.918Z,20.30
2019-05-23T06:38:33.163Z,20.60
2019-05-23T06:41:04.064Z,20.90
2019-05-23T06:43:35.405Z,21.30
2019-05-23T06:46:04.782Z,21.80
2019-05-23T06:48:34.306Z,22.10
2019-05-23T06:51:03.646Z,22.50
2019-05-23T06:53:32.657Z,22.70
2019-05-23T06:56:01.605Z,22.90
2019-05-23T06:58:31.389Z,23.40
2019-05-23T07:01:00.558Z,23.50
2019-05-23T07:03:41.707Z,23.60
2019-05-23T07:06:00.611Z,23.90
2019-05-23T07:08:31.108Z,24.20
2019-05-23T07:11:00.259Z,24.50
2019-05-23T07:13:31.459Z,25.00
2019-05-23T07:16:00.670Z,25.10
2019-05-23T07:18:29.758Z,25.40
2019-05-23T07:20:59.091Z,25.80
2019-05-23T07:23:29.492Z,26.00
2019-05-23T07:25:58.619Z,26.30
2019-05-23T07:28:27.643Z,26.80
2019-05-23T07:30:57.567Z,27.10
2019-05-23T07:33:26.686Z,27.50
2019-05-23T07:35:55.935Z,27.80
2019-05-23T07:38:25.074Z,28.20
2019-05-23T07:40:54.588Z,28.50
2019-05-23T07:43:24.014Z,28.70
2019-05-23T07:45:56.083Z,29.00
2019-05-23T07:48:25.254Z,29.50
2019-05-23T07:50:54.505Z,29.60
2019-05-23T07:53:37.133Z,29.90
2019-05-23T07:56:07.276Z,30.30
2019-05-23T07:58:36.200Z,30.40
2019-05-23T08:01:07.091Z,30.40
2019-05-23T08:03:40.522Z,30.70
2019-05-23T08:06:09.997Z,31.00
2019-05-23T08:08:39.400Z,31.30
2019-05-23T08:11:08.395Z,31.30
2019-05-23T08:13:37.980Z,31.60
2019-05-23T08:16:07.209Z,31.90
2019-05-23T08:18:36.257Z,32.10
2019-05-23T08:21:05.458Z,32.30
2019-05-23T08:23:34.494Z,32.70
2019-05-23T08:26:03.970Z,32.60
2019-05-23T08:28:33.113Z,32.80
2019-05-23T08:31:02.907Z,32.80
2019-05-23T08:33:33.593Z,32.80
2019-05-23T08:36:03.223Z,33.20
2019-05-23T08:38:32.490Z,33.50
2019-05-23T08:41:02.046Z,33.60
2019-05-23T08:43:31.622Z,33.90
2019-05-23T08:46:01.215Z,33.80
2019-05-23T08:48:30.340Z,33.80
2019-05-23T08:50:59.487Z,34.20
2019-05-23T08:53:28.498Z,34.10
2019-05-23T08:55:57.908Z,34.20
2019-05-23T08:58:26.923Z,34.50
2019-05-23T09:00:56.415Z,34.50
2019-05-23T09:03:25.519Z,34.50
2019-05-23T09:05:54.446Z,34.90
2019-05-23T09:08:24.325Z,34.90
2019-05-23T09:10:54.205Z,35.00
2019-05-23T09:13:24.039Z,35.20
2019-05-23T09:15:53.594Z,35.20
2019-05-23T09:18:23.349Z,34.90
2019-05-23T09:20:52.334Z,34.80
2019-05-23T09:23:21.481Z,35.00
2019-05-23T09:25:50.627Z,35.00
2019-05-23T09:28:19.778Z,34.70
2019-05-23T09:30:48.904Z,34.80
2019-05-23T09:33:17.883Z,34.90
2019-05-23T09:35:47.472Z,34.70
2019-05-23T09:38:16.674Z,33.60
2019-05-23T09:40:46.106Z,33.70
2019-05-23T09:43:15.532Z,33.40
2019-05-23T09:45:44.578Z,33.60
2019-05-23T09:48:13.594Z,33.60
2019-05-23T09:50:42.691Z,34.00
2019-05-23T09:53:11.678Z,34.20
2019-05-23T09:55:41.173Z,34.10
2019-05-23T09:58:10.470Z,34.60
2019-05-23T10:00:39.566Z,34.80
2019-05-23T10:03:08.893Z,34.90
2019-05-23T10:05:43.229Z,35.20
2019-05-23T10:08:08.922Z,35.20
2019-05-23T10:10:38.047Z,35.30
2019-05-23T10:13:07.146Z,35.10
2019-05-23T10:15:48.997Z,34.60
2019-05-23T10:18:19.856Z,35.00
2019-05-23T10:20:48.789Z,34.60
2019-05-23T10:23:18.193Z,33.90
2019-05-23T10:25:47.198Z,33.00
2019-05-23T10:28:16.390Z,33.10
2019-05-23T10:30:45.670Z,32.00
2019-05-23T10:33:15.088Z,31.00
2019-05-23T10:35:59.219Z,30.80
2019-05-23T10:38:14.930Z,30.90
2019-05-23T10:40:43.995Z,30.60
2019-05-23T10:43:13.213Z,30.00
2019-05-23T10:45:42.233Z,30.20
2019-05-23T10:48:12.633Z,30.00
2019-05-23T10:50:44.956Z,29.80
2019-05-23T10:53:12.447Z,29.90
2019-05-23T10:55:41.447Z,29.70
2019-05-23T10:58:10.749Z,28.80
2019-05-23T11:00:40.750Z,27.80
2019-05-23T11:03:12.035Z,28.00
2019-05-23T11:05:41.242Z,28.00
2019-05-23T11:08:11.317Z,27.60
2019-05-23T11:10:40.509Z,27.00
2019-05-23T11:13:09.653Z,27.00
2019-05-23T11:15:39.222Z,27.00
2019-05-23T11:18:10.193Z,26.70
2019-05-23T11:20:39.883Z,26.50
2019-05-23T11:23:10.260Z,26.30
2019-05-23T11:25:39.740Z,26.10
2019-05-23T11:28:08.738Z,26.30
2019-05-23T11:30:44.733Z,26.00
2019-05-23T11:33:14.779Z,25.60
2019-05-23T11:35:44.694Z,25.40
2019-05-23T11:38:13.969Z,25.20
2019-05-23T11:40:43.494Z,25.20
2019-05-23T11:43:12.558Z,24.90
2019-05-23T11:45:47.100Z,24.90
2019-05-23T11:48:17.278Z,25.10
2019-05-23T11:50:46.319Z,25.20
2019-05-23T11:53:15.872Z,25.00
2019-05-23T11:55:44.889Z,25.00
2019-05-23T11:58:15.019Z,25.00
2019-05-23T12:01:29.439Z,25.10
2019-05-23T12:04:02.041Z,24.90
2019-05-23T12:06:53.474Z,24.70
2019-05-23T12:09:08.613Z,24.20
2019-05-23T12:11:42.163Z,23.90
2019-05-23T12:14:08.378Z,24.20
2019-05-23T12:16:37.460Z,24.40
2019-05-23T12:19:06.860Z,24.50
2019-05-23T12:21:36.068Z,24.30
2019-05-23T12:24:05.418Z,24.10
2019-05-23T12:26:34.554Z,24.10
2019-05-23T12:29:03.766Z,24.10
2019-05-23T12:31:32.891Z,24.10
2019-05-23T12:34:01.841Z,24.20
2019-05-23T12:36:31.165Z,24.30
2019-05-23T12:39:00.461Z,23.80
2019-05-23T12:41:33.302Z,23.70
2019-05-23T12:44:03.256Z,23.80
2019-05-23T12:46:32.382Z,23.90
2019-05-23T12:49:20.505Z,23.70
2019-05-23T12:51:50.366Z,23.30
2019-05-23T12:54:19.445Z,23.50
2019-05-23T12:56:49.389Z,23.40
2019-05-23T12:59:19.230Z,23.30
2019-05-23T13:01:50.596Z,23.20
2019-05-23T13:04:20.417Z,23.30
2019-05-23T13:06:49.635Z,23.30
2019-05-23T13:09:18.890Z,23.20
2019-05-23T13:11:48.188Z,23.40
2019-05-23T13:14:17.834Z,23.20
2019-05-23T13:16:46.877Z,23.30
2019-05-23T13:19:17.029Z,23.30
2019-05-23T13:21:46.021Z,23.20
2019-05-23T13:24:14.931Z,23.10
2019-05-23T13:26:44.157Z,23.00
2019-05-23T13:29:13.337Z,23.10
2019-05-23T13:31:42.340Z,23.00
2019-05-23T13:34:11.350Z,23.20
2019-05-23T13:36:40.451Z,23.20
2019-05-23T13:39:10.292Z,23.20
2019-05-23T13:41:39.365Z,23.30
2019-05-23T13:44:08.846Z,23.20
2019-05-23T13:46:38.090Z,23.00
2019-05-23T13:49:07.163Z,23.00
2019-05-23T13:51:36.176Z,22.80
2019-05-23T13:54:05.700Z,23.00
2019-05-23T13:56:34.813Z,23.10
2019-05-23T13:59:04.147Z,23.20
2019-05-23T14:01:33.281Z,23.30
2019-05-23T14:04:02.497Z,23.10
2019-05-23T14:06:31.544Z,23.00
2019-05-23T14:09:00.539Z,22.90
2019-05-23T14:11:29.551Z,22.80
2019-05-23T14:14:01.472Z,22.90
2019-05-23T14:16:31.129Z,22.80
2019-05-23T14:19:00.180Z,23.00
2019-05-23T14:21:32.972Z,23.00
2019-05-23T14:24:02.214Z,23.00
2019-05-23T14:26:34.430Z,23.00
2019-05-23T14:29:03.674Z,23.10
2019-05-23T14:31:38.245Z,23.20
2019-05-23T14:34:15.816Z,23.20
2019-05-23T14:37:04.273Z,22.90
2019-05-23T14:40:01.592Z,23.00
2019-05-23T14:43:04.690Z,23.00
2019-05-23T14:45:51.442Z,23.10
2019-05-23T14:48:39.174Z,23.10
2019-05-23T14:51:20.924Z,22.70
2019-05-23T14:53:53.145Z,22.80
2019-05-23T14:56:23.130Z,22.90
2019-05-23T14:58:52.349Z,23.00
2019-05-23T15:01:23.406Z,23.10
2019-05-23T15:03:52.837Z,23.00
2019-05-23T15:06:21.976Z,23.00
2019-05-23T15:08:52.125Z,23.10
2019-05-23T15:11:21.414Z,23.20
2019-05-23T15:13:50.906Z,23.20
2019-05-23T15:16:20.128Z,23.10
2019-05-23T15:18:49.634Z,23.10
2019-05-23T15:21:18.664Z,23.00
2019-05-23T15:23:47.720Z,22.70
2019-05-23T15:26:23.150Z,22.80
2019-05-23T15:28:47.414Z,22.80
2019-05-23T15:31:16.688Z,22.80
2019-05-23T15:33:45.714Z,22.90
2019-05-23T15:36:14.728Z,23.10
2019-05-23T15:38:43.785Z,23.10
2019-05-23T15:41:13.227Z,23.00
2019-05-23T15:43:42.325Z,23.10
2019-05-23T15:46:11.416Z,22.80
2019-05-23T15:48:40.604Z,22.90
2019-05-23T15:51:11.258Z,23.00
2019-05-23T15:53:50.361Z,22.90
2019-05-23T15:56:53.594Z,22.80
2019-05-23T15:59:39.920Z,22.80
2019-05-23T16:02:12.586Z,22.70
2019-05-23T16:04:42.090Z,22.70
2019-05-23T16:07:11.811Z,22.70
2019-05-23T16:09:41.404Z,22.80
2019-05-23T16:12:17.017Z,22.70
2019-05-23T16:14:46.206Z,22.80
2019-05-23T16:17:15.317Z,22.80
2019-05-23T16:19:44.282Z,22.90
2019-05-23T16:22:13.717Z,22.90
2019-05-23T16:24:42.704Z,22.90
2019-05-23T16:27:12.211Z,22.90
2019-05-23T16:29:41.528Z,23.00
2019-05-23T16:32:10.632Z,22.80
2019-05-23T16:34:40.243Z,22.80
2019-05-23T16:37:09.275Z,22.80
2019-05-23T16:39:47.204Z,22.80
2019-05-23T16:42:09.959Z,22.70
2019-05-23T16:44:39.049Z,22.70
2019-05-23T16:47:08.251Z,22.50
2019-05-23T16:49:37.315Z,22.50
2019-05-23T16:52:06.463Z,22.60
2019-05-23T16:54:40.206Z,22.60
2019-05-23T16:57:24.993Z,22.60
2019-05-23T16:59:59.946Z,22.50
2019-05-23T17:02:48.770Z,22.50
2019-05-23T17:05:38.552Z,22.50
2019-05-23T17:08:16.914Z,22.50
2019-05-23T17:10:55.709Z,22.50
2019-05-23T17:13:34.984Z,22.40
2019-05-23T17:16:17.501Z,22.40
2019-05-23T17:19:10.086Z,22.30
2019-05-23T17:21:45.539Z,22.30
2019-05-23T17:24:40.129Z,22.20
2019-05-23T17:27:40.467Z,22.20
2019-05-23T17:30:22.035Z,22.20
2019-05-23T17:32:51.141Z,22.10
2019-05-23T17:35:20.218Z,22.10
2019-05-23T17:37:49.247Z,21.80
2019-05-23T17:40:24.936Z,21.80
2019-05-23T17:42:49.286Z,21.70
2019-05-23T17:45:20.245Z,21.70
2019-05-23T17:47:49.274Z,21.50
2019-05-23T17:50:18.371Z,21.60
2019-05-23T17:52:47.439Z,21.60
2019-05-23T17:55:16.971Z,21.50
2019-05-23T17:57:46.165Z,21.40
2019-05-23T18:00:17.911Z,21.40
2019-05-23T18:02:47.119Z,21.30
2019-05-23T18:05:16.363Z,21.30
2019-05-23T18:07:45.513Z,21.20
2019-05-23T18:10:14.831Z,21.20
2019-05-23T18:12:43.759Z,21.20
2019-05-23T18:15:13.471Z,21.10
2019-05-23T18:17:43.379Z,21.00
2019-05-23T18:20:13.217Z,20.90
2019-05-23T18:22:42.602Z,20.80
2019-05-23T18:25:13.586Z,20.80
2019-05-23T18:27:43.916Z,20.80
2019-05-23T18:30:22.706Z,20.70
2019-05-23T18:32:53.242Z,20.60
2019-05-23T18:35:22.622Z,20.50
2019-05-23T18:37:52.050Z,20.50
2019-05-23T18:40:21.625Z,20.30
2019-05-23T18:42:51.384Z,20.20
2019-05-23T18:45:21.144Z,20.20
2019-05-23T18:47:50.188Z,20.00
2019-05-23T18:50:20.698Z,20.00
2019-05-23T18:52:58.125Z,19.60
2019-05-23T18:55:27.946Z,19.40
2019-05-23T18:57:56.997Z,19.30
2019-05-23T19:01:17.097Z,19.00
2019-05-23T19:03:49.236Z,18.70
2019-05-23T19:06:21.543Z,18.50
2019-05-23T19:08:51.977Z,18.40
2019-05-23T19:11:21.903Z,18.20
2019-05-23T19:13:53.954Z,18.10
2019-05-23T19:16:22.984Z,17.90
2019-05-23T19:18:52.125Z,17.90
2019-05-23T19:21:21.822Z,17.60
2019-05-23T19:23:51.505Z,17.50
2019-05-23T19:26:21.863Z,17.50
2019-05-23T19:28:51.167Z,17.40
2019-05-23T19:31:20.587Z,17.30
2019-05-23T19:33:49.668Z,17.20
2019-05-23T19:36:18.984Z,17.10
2019-05-23T19:38:48.000Z,17.00
2019-05-23T19:41:17.074Z,16.80
2019-05-23T19:43:48.228Z,16.80
2019-05-23T19:46:17.526Z,16.50
2019-05-23T19:48:48.733Z,16.40
2019-05-23T19:51:20.065Z,16.50
2019-05-23T19:53:49.989Z,16.00
2019-05-23T19:56:19.466Z,16.00
2019-05-23T19:58:48.742Z,16.00
2019-05-23T20:01:18.677Z,16.00
2019-05-23T20:03:47.760Z,15.90
2019-05-23T20:06:17.029Z,15.80
2019-05-23T20:08:47.016Z,15.70
2019-05-23T20:11:18.556Z,15.50
2019-05-23T20:13:47.771Z,15.50
2019-05-23T20:16:16.835Z,15.40
2019-05-23T20:18:46.186Z,15.40
2019-05-23T20:21:17.125Z,15.40
2019-05-23T20:23:46.266Z,15.30
2019-05-23T20:26:15.464Z,15.30
2019-05-23T20:28:44.621Z,15.10
2019-05-23T20:31:13.618Z,15.00
2019-05-23T20:33:42.590Z,14.90
2019-05-23T20:36:14.959Z,14.90
2019-05-23T20:38:45.976Z,14.70
2019-05-23T20:41:15.548Z,14.70
2019-05-23T20:43:44.611Z,14.60
2019-05-23T20:46:13.722Z,14.60
2019-05-23T20:48:43.049Z,14.50
2019-05-23T20:51:13.102Z,14.50
2019-05-23T20:53:42.774Z,14.50
2019-05-23T20:56:11.921Z,14.50
2019-05-23T20:58:40.958Z,14.40
2019-05-23T21:01:20.744Z,14.20
2019-05-23T21:03:50.861Z,14.30
2019-05-23T21:06:20.411Z,14.10
2019-05-23T21:08:49.382Z,14.10
2019-05-23T21:11:18.517Z,14.20
2019-05-23T21:13:47.527Z,14.00
2019-05-23T21:16:16.569Z,14.00
2019-05-23T21:18:49.187Z,13.90
2019-05-23T21:21:16.891Z,13.90
2019-05-23T21:23:46.025Z,13.70
2019-05-23T21:26:14.984Z,13.70
2019-05-23T21:28:44.080Z,13.70
2019-05-23T21:31:20.195Z,13.60
2019-05-23T21:33:49.253Z,13.50
2019-05-23T21:36:18.325Z,13.60
2019-05-23T21:38:47.654Z,13.60
2019-05-23T21:41:16.736Z,13.40
2019-05-23T21:43:47.357Z,13.30
2019-05-23T21:46:16.463Z,13.40
2019-05-23T21:48:45.420Z,13.40
2019-05-23T21:51:14.441Z,13.30
2019-05-23T21:53:43.395Z,13.20
2019-05-23T21:56:13.353Z,13.20
2019-05-23T21:58:42.348Z,13.30
2019-05-23T22:01:43.858Z,13.30
2019-05-23T22:04:20.892Z,13.10
2019-05-23T22:06:55.878Z,13.10
2019-05-23T22:09:25.022Z,13.10
2019-05-23T22:11:54.261Z,13.10
2019-05-23T22:14:23.478Z,13.00
2019-05-23T22:16:52.726Z,12.90
2019-05-23T22:19:22.751Z,12.80
2019-05-23T22:21:51.841Z,12.80
2019-05-23T22:24:20.899Z,12.80
2019-05-23T22:26:49.827Z,12.70
2019-05-23T22:29:18.908Z,12.70
2019-05-23T22:31:47.829Z,12.70
2019-05-23T22:34:32.608Z,12.70
2019-05-23T22:37:02.076Z,12.60
2019-05-23T22:39:31.134Z,12.60
2019-05-23T22:42:00.102Z,12.50
2019-05-23T22:44:29.106Z,12.50
2019-05-23T22:46:58.253Z,12.60
2019-05-23T22:49:27.278Z,12.50
2019-05-23T22:51:56.200Z,12.50
2019-05-23T22:54:25.314Z,12.40
2019-05-23T22:56:54.277Z,12.30
2019-05-23T22:59:23.226Z,12.30
2019-05-23T23:01:52.333Z,12.30
2019-05-23T23:04:21.369Z,12.30
2019-05-23T23:06:50.467Z,12.30
2019-05-23T23:09:19.518Z,12.30
2019-05-23T23:11:48.554Z,12.30
2019-05-23T23:14:17.727Z,12.10
2019-05-23T23:16:47.137Z,12.00
2019-05-23T23:19:16.162Z,12.00
2019-05-23T23:21:45.167Z,12.00
2019-05-23T23:24:14.167Z,12.00
2019-05-23T23:26:43.262Z,12.00
2019-05-23T23:29:12.394Z,11.90
2019-05-23T23:31:41.411Z,11.90
2019-05-23T23:34:10.616Z,11.80
2019-05-23T23:36:39.711Z,11.80
2019-05-23T23:39:08.722Z,11.90
2019-05-23T23:41:37.810Z,11.90
2019-05-23T23:44:08.444Z,11.80
2019-05-23T23:46:55.197Z,11.70
2019-05-23T23:49:42.252Z,11.70
2019-05-23T23:52:29.326Z,11.60
2019-05-23T23:55:16.207Z,11.60
2019-05-23T23:57:59.707Z,11.50
